Florence, MT

6:43 PM MDT on July 01, 2015 (GMT -0600)
MPG Ranch - Baldy Summit | | Change Station
CLOSE
Current Station
Personal Weather Station
Location: Florence, MT
Elevation: 5997 ft
Nearby Weather Stations

Elev 5997 ft 46.71 °N, 113.98 °W | Updated 10 minutes ago

Clear
Clear
80.5 °F
Feels Like 79 °F
N
6.0
Wind Variable Wind from West
Gusts 11.0 mph

Today
High -- | Low -- °F
--% Chance of Precip.
Yesterday
High -- | Low -- °F
Precip. -- in
5:46 AM 9:33 PM
Full, 100% visible
Pressure 29.91 in
Visibility 10.0 miles
Clouds Scattered Clouds 12000 ft
Heat Index 79 °F
Dew Point 32 °F
Humidity 17%
Rainfall 0.00 in
Snow Depth Not available.
UV 3 out of 12
Pollen 5.70 out of 12
Air Quality Not available.
Flu Activity Not available.
METAR KMSO 012353Z 00000KT 10SM SCT120 34/03 A2998 RMK AO2 SLP126 T03390033 10344 20289 56013

More Conditions Fewer Conditions

Pressure 29.91 in
Visibility 10.0 miles
Clouds Scattered Clouds 12000 ft
Heat Index 79 °F
Dew Point 32 °F
Humidity 17%
Rainfall 0.00 in
Snow Depth Not available.
UV 3 out of 12
Pollen 5.70 out of 12
Air Quality Not available.
Flu Activity Not available.
METAR KMSO 012353Z 00000KT 10SM SCT120 34/03 A2998 RMK AO2 SLP126 T03390033 10344 20289 56013

More Conditions Fewer Conditions

10-Day Weather Forecast

×

Almanac

Astronomy

Jul. 01, 2015 Rise Set
Actual Time
Civil Twilight
Nautical Twilight
Astronomical Twilight
Moon
Length of Visible Light
Length of Day
Tomorrow will be .
, % of the Moon is Illuminated

Today's Extremes

State Highs State Lows

Community

WunderPhotos

Upload Photos

1,834,355 photos uploaded!

WunderBlogs® & News

Nearby

Air Quality

  Air Quality AQ Index Pollutant
Not available.

Snow Depth

Station Depth Elevation

Earthquake Activity

City Distance Mag. Time & Date
Minimum magnitude displayed is 2.5.

Coastal Water Temperatures

Place Temperature

Stations

Nearby Weather Stations

Station Location Temp. Windchill Dew Point Humidity Wind Precip. Elev Updated Type